Time;durP1;ratioP1;P1;durP2;ratioP2;P2;SDS_P1;SDS_P2;PMS_P1;PMS_P2;Temp;Humidity;BMP_temperature;BMP_pressure;BME280_temperature;BME280_humidity;BME280_pressure;Samples;Min_cycle;Max_cycle;Signal;HPM_P1;HPM_P2
2023/08/01 05:58:17;;;;;;;;;;;;;;;18.75;81.42;98484.47;1088072;54;19935;-84
2023/08/01 05:59:18;;;;;;;;;;;;;;;18.74;81.20;98485.53;1086725;46;20108;-83
2023/08/01 06:00:21;;;;;;;;;;;;;;;18.79;81.54;98482.97;1087138;39;20448;-84
2023/08/01 06:31:47;;;;;;;;;;;;;;;17.96;89.85;98531.53;1088498;54;19983;-85
2023/08/01 06:34:46;;;;;;;;;;;;;;;17.85;91.28;98519.63;1089123;39;20765;-85
2023/08/01 06:36:35;;;;;;;;;;;;;;;17.90;90.91;98521.63;1088070;47;19943;-85
2023/08/01 06:48:56;;;;;;;;;;;;;;;17.83;91.65;98486.59;1088484;54;19930;-85
2023/08/01 06:57:51;;;;;;;;;;;;;;;17.48;95.16;98503.47;1088134;54;19931;-86
2023/08/01 08:08:02;;;;;;;;;;;;;;;17.60;95.82;98490.84;1086997;54;19943;-82
2023/08/01 08:09:17;;;;;;;;;;;;;;;17.76;94.99;98493.94;1087046;47;19939;-82
2023/08/01 08:10:24;;;;;;;;;;;;;;;17.74;95.01;98487.97;1087275;47;19953;-81
2023/08/01 08:11:25;;;;;;;;;;;;;;;17.77;94.74;98499.13;1087256;47;19939;-82
2023/08/01 08:12:38;;;;;;;;;;;;;;;17.73;94.10;98486.31;1087534;54;19943;-82
2023/08/01 08:26:29;;;;;;;;;;;;;;;17.88;92.66;98481.28;1087479;54;19943;-81
2023/08/01 08:27:30;;;;;;;;;;;;;;;17.88;92.21;98486.69;1087312;47;19939;-82
2023/08/01 08:29:55;;;;;;;;;;;;;;;17.93;91.76;98478.75;1086918;54;19954;-80
2023/08/01 08:30:58;;;;;;;;;;;;;;;17.98;91.59;98478.06;1087439;47;19951;-85
2023/08/01 10:44:53;;;;;;;;;;;;;;;22.47;62.67;98520.09;1087378;54;20811;-84
2023/08/01 10:46:01;;;;;;;;;;;;;;;22.71;62.41;98522.44;1087446;54;20826;-84
2023/08/01 10:47:05;;;;;;;;;;;;;;;22.54;62.51;98530.72;1087469;47;20331;-83
2023/08/01 10:48:06;;;;;;;;;;;;;;;22.66;62.54;98527.84;1087460;47;19973;-87
2023/08/01 10:49:07;;;;;;;;;;;;;;;22.70;61.83;98515.34;1087579;47;19948;-83
2023/08/01 10:50:16;;;;;;;;;;;;;;;22.61;61.44;98515.03;1087630;47;19963;-86
2023/08/01 10:51:17;;;;;;;;;;;;;;;22.55;61.23;98511.44;1087803;46;19942;-86
2023/08/01 10:52:23;;;;;;;;;;;;;;;22.31;61.77;98508.22;1087665;47;19991;-86
2023/08/01 10:53:23;;;;;;;;;;;;;;;22.49;60.56;98507.00;1087668;47;19966;-85
2023/08/01 12:46:29;;;;;;;;;;;;;;;23.01;45.88;98572.75;1088196;39;21034;-86
2023/08/01 12:47:33;;;;;;;;;;;;;;;23.17;45.56;98576.41;1087351;47;19943;-85
2023/08/01 12:48:36;;;;;;;;;;;;;;;23.09;44.92;98587.81;1087504;54;19967;-84
2023/08/01 12:49:37;;;;;;;;;;;;;;;23.09;44.75;98590.53;1087322;47;19942;-88
2023/08/01 12:50:40;;;;;;;;;;;;;;;23.13;45.11;98586.19;1087350;54;19976;-85
2023/08/01 12:51:41;;;;;;;;;;;;;;;23.02;45.47;98575.19;1087590;47;19942;-86
2023/08/01 12:52:44;;;;;;;;;;;;;;;23.05;45.12;98588.31;1087437;47;21108;-87
2023/08/01 12:53:46;;;;;;;;;;;;;;;23.16;45.22;98570.13;1087572;54;19947;-86
2023/08/01 12:54:51;;;;;;;;;;;;;;;23.18;45.12;98573.44;1087510;47;19963;-85
2023/08/01 12:55:52;;;;;;;;;;;;;;;23.25;45.23;98573.19;1087413;47;21195;-86
2023/08/01 12:56:55;;;;;;;;;;;;;;;23.25;45.44;98578.66;1087255;47;19938;-86
2023/08/01 12:57:56;;;;;;;;;;;;;;;23.16;45.62;98574.75;1087204;47;19950;-87
2023/08/01 12:58:59;;;;;;;;;;;;;;;23.01;45.54;98589.91;1087203;54;19942;-87
2023/08/01 13:00:00;;;;;;;;;;;;;;;22.95;46.00;98588.25;1087175;54;19943;-86
2023/08/01 13:01:05;;;;;;;;;;;;;;;23.01;45.63;98589.91;1087342;54;19943;-87
2023/08/01 13:02:08;;;;;;;;;;;;;;;23.10;45.55;98581.25;1087118;54;19943;-86
2023/08/01 13:03:14;;;;;;;;;;;;;;;23.13;45.58;98570.66;1087444;54;19943;-88
2023/08/01 13:04:15;;;;;;;;;;;;;;;23.02;45.19;98572.47;1087301;54;19998;-85
2023/08/01 13:05:18;;;;;;;;;;;;;;;23.20;44.90;98574.00;1087452;46;19976;-86
2023/08/01 13:06:19;;;;;;;;;;;;;;;23.21;44.42;98567.47;1087280;46;19951;-87
2023/08/01 13:07:23;;;;;;;;;;;;;;;23.24;45.24;98566.09;1089866;39;21018;-86
2023/08/01 13:08:24;;;;;;;;;;;;;;;23.33;44.94;98569.16;1087282;47;20016;-86
2023/08/01 13:09:27;;;;;;;;;;;;;;;23.23;44.69;98569.09;1087377;47;19943;-86
2023/08/01 13:10:29;;;;;;;;;;;;;;;23.29;44.02;98578.94;1087289;54;19950;-87
2023/08/01 13:11:33;;;;;;;;;;;;;;;23.33;43.98;98572.69;1087466;54;19946;-85
2023/08/01 13:12:33;;;;;;;;;;;;;;;23.23;44.11;98577.28;1087530;54;19943;-87
2023/08/01 13:13:37;;;;;;;;;;;;;;;23.41;44.21;98585.00;1087427;54;19966;-86
2023/08/01 13:14:37;;;;;;;;;;;;;;;23.34;44.12;98576.22;1087363;47;19947;-87
2023/08/01 13:15:41;;;;;;;;;;;;;;;23.27;44.97;98576.50;1087244;47;19942;-86
2023/08/01 13:16:42;;;;;;;;;;;;;;;23.27;44.76;98584.66;1087449;46;19946;-87
2023/08/01 13:17:45;;;;;;;;;;;;;;;23.23;44.97;98586.25;1087209;54;19950;-87
2023/08/01 13:18:48;;;;;;;;;;;;;;;23.31;44.99;98582.22;1087150;47;19942;-86
2023/08/01 13:19:52;;;;;;;;;;;;;;;23.33;44.42;98574.63;1087369;47;19945;-86
2023/08/01 13:20:52;;;;;;;;;;;;;;;23.31;44.48;98572.13;1087156;46;20730;-88
2023/08/01 13:21:58;;;;;;;;;;;;;;;23.45;44.51;98577.13;1087273;54;19967;-88
2023/08/01 13:22:59;;;;;;;;;;;;;;;23.56;44.53;98584.28;1087267;46;19955;-87
2023/08/01 13:24:04;;;;;;;;;;;;;;;23.65;44.66;98576.38;1087096;47;19974;-87
2023/08/01 13:25:06;;;;;;;;;;;;;;;23.61;44.65;98587.00;1087289;46;19966;-87
2023/08/01 13:26:07;;;;;;;;;;;;;;;23.59;44.32;98588.38;1087294;54;19950;-87
2023/08/01 13:27:11;;;;;;;;;;;;;;;23.69;44.66;98580.22;1087314;54;19942;-87
2023/08/01 13:28:11;;;;;;;;;;;;;;;23.51;43.70;98592.41;1087140;46;20995;-87
2023/08/01 13:29:15;;;;;;;;;;;;;;;23.46;43.71;98584.22;1087460;47;19949;-88
2023/08/01 13:30:17;;;;;;;;;;;;;;;23.41;43.30;98587.75;1087299;46;19942;-87
2023/08/01 13:31:21;;;;;;;;;;;;;;;23.46;43.01;98589.66;1087332;47;19942;-89
2023/08/01 13:32:22;;;;;;;;;;;;;;;23.46;43.24;98581.50;1087397;54;19942;-86
2023/08/01 13:33:22;;;;;;;;;;;;;;;23.47;43.43;98588.59;1087640;54;19943;-86
2023/08/01 13:34:28;;;;;;;;;;;;;;;23.23;43.17;98596.38;1088889;39;20556;-89
2023/08/01 13:35:29;;;;;;;;;;;;;;;23.39;42.92;98597.25;1087526;54;19954;-88
2023/08/01 13:36:32;;;;;;;;;;;;;;;23.40;42.93;98588.81;1087147;47;19939;-87
2023/08/01 13:37:35;;;;;;;;;;;;;;;23.36;42.34;98591.25;1087482;54;19943;-87
2023/08/01 13:38:35;;;;;;;;;;;;;;;23.25;42.50;98586.00;1087453;47;21041;-88
2023/08/01 13:39:39;;;;;;;;;;;;;;;23.25;42.49;98599.63;1087370;47;19966;-85
2023/08/01 13:40:40;;;;;;;;;;;;;;;23.34;43.09;98587.13;1087193;47;19946;-87
2023/08/01 13:41:43;;;;;;;;;;;;;;;23.28;42.67;98582.75;1087161;47;19964;-86
2023/08/01 13:42:44;;;;;;;;;;;;;;;23.31;42.37;98579.50;1087443;47;20802;-87
2023/08/01 13:43:47;;;;;;;;;;;;;;;23.31;42.56;98582.22;1090462;46;20005;-87
2023/08/01 13:47:13;;;;;;;;;;;;;;;23.44;42.27;98592.66;1088878;39;20956;-86
2023/08/01 13:48:14;;;;;;;;;;;;;;;23.60;42.24;98599.00;1087977;54;19958;-89
2023/08/01 13:49:17;;;;;;;;;;;;;;;23.57;41.97;98593.25;1087281;47;19966;-87
2023/08/01 13:50:20;;;;;;;;;;;;;;;23.65;41.78;98581.84;1087362;46;20742;-87
2023/08/01 13:51:24;;;;;;;;;;;;;;;23.82;41.52;98582.44;1087352;47;19963;-88
2023/08/01 13:52:24;;;;;;;;;;;;;;;23.80;41.40;98583.81;1087214;46;19939;-86
2023/08/01 13:53:28;;;;;;;;;;;;;;;23.72;41.36;98590.59;1087044;47;21147;-87
2023/08/01 13:54:28;;;;;;;;;;;;;;;23.75;41.17;98581.88;1087195;47;19954;-87
2023/08/01 13:55:32;;;;;;;;;;;;;;;23.64;41.05;98575.56;1087148;47;19949;-87
2023/08/01 13:56:32;;;;;;;;;;;;;;;23.74;40.74;98577.50;1087192;47;19968;-87
2023/08/01 13:57:36;;;;;;;;;;;;;;;23.65;40.95;98579.09;1087124;47;19939;-87
2023/08/01 13:58:37;;;;;;;;;;;;;;;23.67;40.65;98575.03;1087174;47;21125;-88
2023/08/01 13:59:40;;;;;;;;;;;;;;;23.68;40.61;98581.31;1087133;47;19943;-85
2023/08/01 14:00:42;;;;;;;;;;;;;;;23.76;40.66;98572.59;1087064;54;20904;-87
2023/08/01 14:01:45;;;;;;;;;;;;;;;23.70;40.88;98579.16;1087197;47;19945;-87
2023/08/01 14:02:48;;;;;;;;;;;;;;;23.74;41.09;98579.44;1087214;47;20223;-89
2023/08/01 14:03:52;;;;;;;;;;;;;;;23.84;40.62;98585.72;1087112;47;19979;-87
2023/08/01 14:04:53;;;;;;;;;;;;;;;23.69;40.05;98591.13;1087033;54;19943;-87
2023/08/01 14:06:05;;;;;;;;;;;;;;;23.54;40.13;98580.97;1087125;54;19966;-86
2023/08/01 14:07:06;;;;;;;;;;;;;;;23.74;39.71;98569.31;1087162;47;19946;-89
2023/08/01 14:08:09;;;;;;;;;;;;;;;23.61;40.11;98580.75;1086929;47;19949;-88
2023/08/01 14:09:10;;;;;;;;;;;;;;;23.61;40.63;98575.28;1087001;47;19971;-87
2023/08/01 14:10:14;;;;;;;;;;;;;;;23.70;41.06;98581.03;1087082;47;19943;-88
2023/08/01 14:11:15;;;;;;;;;;;;;;;23.79;41.33;98583.00;1086995;47;20729;-87
2023/08/01 14:12:19;;;;;;;;;;;;;;;23.81;41.37;98580.00;1087092;47;19939;-87
2023/08/01 14:13:20;;;;;;;;;;;;;;;23.81;41.52;98578.06;1087168;54;19942;-86
2023/08/01 14:14:23;;;;;;;;;;;;;;;23.75;41.73;98587.34;1086910;47;19939;-86
2023/08/01 14:15:24;;;;;;;;;;;;;;;23.64;41.40;98575.56;1087054;54;19995;-87
2023/08/01 14:16:27;;;;;;;;;;;;;;;23.71;41.39;98575.31;1086908;54;19946;-86
2023/08/01 14:17:28;;;;;;;;;;;;;;;23.68;41.43;98573.13;1087118;54;19967;-86
2023/08/01 14:18:31;;;;;;;;;;;;;;;23.58;41.34;98575.81;1087072;54;19990;-87
2023/08/01 14:19:32;;;;;;;;;;;;;;;23.49;41.42;98580.94;1086946;47;19943;-87
2023/08/01 14:20:37;;;;;;;;;;;;;;;23.41;41.71;98579.56;1087155;47;19954;-85
2023/08/01 14:21:40;;;;;;;;;;;;;;;23.33;41.51;98580.88;1087122;47;19973;-88
2023/08/01 14:22:44;;;;;;;;;;;;;;;23.43;41.71;98585.53;1087700;39;20695;-88
2023/08/01 14:23:45;;;;;;;;;;;;;;;23.34;41.70;98600.75;1087059;47;19942;-87
2023/08/01 14:24:50;;;;;;;;;;;;;;;23.31;42.01;98595.88;1087152;47;21049;-86
2023/08/01 14:26:57;;;;;;;;;;;;;;;23.52;41.88;98583.94;1087337;54;19983;-87
2023/08/01 14:27:58;;;;;;;;;;;;;;;23.48;41.73;98588.31;1087130;47;19974;-88
2023/08/01 14:29:01;;;;;;;;;;;;;;;23.49;41.66;98589.97;1087388;47;20328;-89
2023/08/01 14:30:03;;;;;;;;;;;;;;;23.43;42.13;98595.66;1087478;54;19970;-87
2023/08/01 14:31:07;;;;;;;;;;;;;;;23.49;42.16;98598.13;1087372;47;20364;-88
2023/08/01 14:32:08;;;;;;;;;;;;;;;23.46;41.77;98590.47;1087662;54;19950;-86
2023/08/01 14:33:11;;;;;;;;;;;;;;;23.45;41.77;98593.47;1087817;54;19942;-85
2023/08/01 14:34:12;;;;;;;;;;;;;;;23.59;41.60;98582.91;1087546;47;19954;-87
2023/08/01 14:35:13;;;;;;;;;;;;;;;23.68;41.44;98587.56;1087556;54;19942;-88
2023/08/01 14:36:16;;;;;;;;;;;;;;;23.81;41.10;98582.72;1087677;54;19966;-88
2023/08/01 14:37:23;;;;;;;;;;;;;;;23.87;41.17;98589.00;1087690;54;19946;-88
2023/08/01 14:38:27;;;;;;;;;;;;;;;23.79;41.39;98591.19;1087546;54;19942;-88
2023/08/01 14:39:28;;;;;;;;;;;;;;;23.78;41.83;98595.00;1087474;54;19942;-87
2023/08/01 14:40:31;;;;;;;;;;;;;;;23.50;41.20;98586.16;1087602;54;19943;-89
2023/08/01 14:41:33;;;;;;;;;;;;;;;23.55;41.23;98588.06;1087398;47;19942;-87
2023/08/01 14:42:36;;;;;;;;;;;;;;;23.64;41.48;98593.81;1087429;54;19943;-87
2023/08/01 14:43:37;;;;;;;;;;;;;;;23.72;41.10;98598.75;1087511;46;19942;-88
2023/08/01 14:44:41;;;;;;;;;;;;;;;23.75;40.78;98598.25;1087414;54;19942;-89
2023/08/01 14:45:41;;;;;;;;;;;;;;;23.76;40.83;98605.34;1087770;39;20583;-87
2023/08/01 14:46:45;;;;;;;;;;;;;;;23.86;40.69;98601.81;1087321;47;19938;-88
2023/08/01 14:47:45;;;;;;;;;;;;;;;23.96;40.60;98606.53;1087332;54;19946;-88
2023/08/01 14:48:46;;;;;;;;;;;;;;;24.04;40.75;98597.81;1087311;54;19943;-89
2023/08/01 14:49:50;;;;;;;;;;;;;;;24.07;40.15;98599.19;1087787;54;19991;-87
2023/08/01 14:50:50;;;;;;;;;;;;;;;24.06;40.61;98601.13;1087335;47;19943;-89
2023/08/01 14:51:54;;;;;;;;;;;;;;;24.00;40.18;98599.44;1087552;47;19942;-88
2023/08/01 14:52:57;;;;;;;;;;;;;;;24.10;39.70;98602.19;1087397;54;19967;-86
2023/08/01 14:54:01;;;;;;;;;;;;;;;24.08;39.03;98601.66;1087511;54;19949;-90
2023/08/01 14:55:01;;;;;;;;;;;;;;;24.24;38.53;98605.22;1087469;54;19966;-86
2023/08/01 14:56:07;;;;;;;;;;;;;;;24.30;38.05;98608.78;1087097;47;19943;-86
2023/08/01 14:57:09;;;;;;;;;;;;;;;24.37;37.80;98603.06;1087216;54;20761;-87
2023/08/01 14:58:12;;;;;;;;;;;;;;;24.57;37.68;98603.09;1087075;47;19939;-88
2023/08/01 14:59:13;;;;;;;;;;;;;;;24.85;37.55;98600.09;1087063;47;20781;-87
2023/08/01 15:01:21;;;;;;;;;;;;;;;25.25;36.80;98590.22;1087994;54;19990;-89
2023/08/01 15:02:22;;;;;;;;;;;;;;;25.52;36.71;98595.38;1087584;47;19950;-88
2023/08/01 15:03:25;;;;;;;;;;;;;;;25.66;36.61;98594.75;1087569;46;19998;-87
2023/08/01 15:04:26;;;;;;;;;;;;;;;25.60;36.20;98593.97;1087834;39;20811;-87
2023/08/01 15:05:29;;;;;;;;;;;;;;;25.96;36.11;98607.50;1087141;47;19946;-87
2023/08/01 15:06:30;;;;;;;;;;;;;;;25.59;36.41;98608.75;1088610;39;21231;-87
2023/08/01 15:07:34;;;;;;;;;;;;;;;25.69;36.53;98605.16;1086987;47;19939;-88
2023/08/01 15:08:37;;;;;;;;;;;;;;;25.74;36.34;98607.03;1087052;54;19962;-88
2023/08/01 15:09:44;;;;;;;;;;;;;;;25.25;37.12;98601.16;1087053;54;19943;-87
2023/08/01 15:10:45;;;;;;;;;;;;;;;25.15;36.27;98614.84;1087119;54;19962;-87
2023/08/01 15:11:48;;;;;;;;;;;;;;;25.25;35.72;98623.03;1089033;31;20788;-87
2023/08/01 15:12:49;;;;;;;;;;;;;;;25.37;35.40;98618.09;1087173;47;19939;-87
2023/08/01 15:13:52;;;;;;;;;;;;;;;25.54;34.97;98612.34;1087025;47;19955;-86
2023/08/01 15:14:53;;;;;;;;;;;;;;;25.37;35.10;98604.41;1087067;54;19976;-87
2023/08/01 15:15:58;;;;;;;;;;;;;;;25.58;35.22;98598.91;1089554;39;20202;-85
2023/08/01 15:16:59;;;;;;;;;;;;;;;25.78;35.18;98610.88;1087055;47;19942;-88
2023/08/01 15:18:02;;;;;;;;;;;;;;;25.80;35.29;98609.50;1087033;47;19965;-85
2023/08/01 15:19:03;;;;;;;;;;;;;;;25.99;35.17;98608.84;1088923;39;20773;-86
2023/08/01 15:20:07;;;;;;;;;;;;;;;25.98;34.76;98608.00;1086969;47;19939;-87
2023/08/01 15:21:08;;;;;;;;;;;;;;;25.75;35.18;98603.22;1087005;54;20773;-86
2023/08/01 15:22:11;;;;;;;;;;;;;;;25.72;35.08;98598.28;1086912;47;19938;-84
2023/08/01 15:23:12;;;;;;;;;;;;;;;25.57;35.28;98608.22;1086863;47;19949;-87
2023/08/01 15:24:18;;;;;;;;;;;;;;;25.74;35.23;98612.53;1086913;47;19962;-87
2023/08/01 15:25:19;;;;;;;;;;;;;;;25.80;34.72;98609.50;1089537;39;21088;-87
2023/08/01 15:26:22;;;;;;;;;;;;;;;25.66;35.20;98606.53;1087003;54;19943;-90
2023/08/01 15:27:23;;;;;;;;;;;;;;;25.83;34.55;98605.38;1086870;47;19946;-88
2023/08/01 15:28:28;;;;;;;;;;;;;;;25.59;34.94;98607.91;1086616;47;19938;-89
2023/08/01 15:29:28;;;;;;;;;;;;;;;25.25;35.22;98614.81;1088275;39;20657;-87
2023/08/01 15:30:32;;;;;;;;;;;;;;;25.10;35.68;98606.66;1086987;47;19992;-88
2023/08/01 15:31:34;;;;;;;;;;;;;;;25.23;35.95;98614.28;1087254;47;19999;-89
2023/08/01 15:32:37;;;;;;;;;;;;;;;25.25;35.67;98605.81;1086881;47;19943;-89
2023/08/01 15:33:38;;;;;;;;;;;;;;;25.26;35.36;98613.72;1086874;47;19969;-88
2023/08/01 15:34:42;;;;;;;;;;;;;;;25.11;35.69;98600.91;1087097;47;19943;-88
2023/08/01 15:35:43;;;;;;;;;;;;;;;25.13;36.03;98614.31;1087054;47;19955;-89
2023/08/01 15:36:48;;;;;;;;;;;;;;;25.16;36.02;98614.59;1086900;47;19943;-89
2023/08/01 15:37:49;;;;;;;;;;;;;;;25.44;35.92;98611.53;1087165;47;19950;-90
2023/08/01 15:38:53;;;;;;;;;;;;;;;25.22;36.10;98615.41;1086929;54;19954;-87
2023/08/01 15:39:56;;;;;;;;;;;;;;;25.28;36.28;98610.72;1086954;47;20002;-86
2023/08/01 15:40:57;;;;;;;;;;;;;;;25.45;35.75;98610.44;1086849;54;19943;-88
2023/08/01 15:42:00;;;;;;;;;;;;;;;25.37;36.17;98609.88;1086910;47;19950;-87
2023/08/01 15:43:01;;;;;;;;;;;;;;;25.19;36.09;98613.19;1086912;47;20003;-86
2023/08/01 15:44:04;;;;;;;;;;;;;;;25.27;35.78;98604.44;1086705;54;19949;-86
2023/08/01 15:45:07;;;;;;;;;;;;;;;25.37;35.91;98619.97;1087045;54;19950;-87
2023/08/01 15:46:11;;;;;;;;;;;;;;;25.10;36.52;98620.31;1090143;39;20733;-87
2023/08/01 15:47:12;;;;;;;;;;;;;;;24.86;36.65;98626.34;1086943;47;19946;-85
2023/08/01 15:48:15;;;;;;;;;;;;;;;25.04;36.23;98617.59;1086933;47;19947;-87
2023/08/01 15:49:16;;;;;;;;;;;;;;;24.70;36.81;98629.09;1086782;47;19946;-85
2023/08/01 15:50:19;;;;;;;;;;;;;;;24.75;36.49;98626.34;1086918;54;19965;-88
2023/08/01 15:51:20;;;;;;;;;;;;;;;24.68;36.55;98625.78;1086976;47;19939;-89
2023/08/01 15:52:23;;;;;;;;;;;;;;;24.71;36.67;98627.16;1086758;47;19939;-85
2023/08/01 15:53:24;;;;;;;;;;;;;;;24.67;36.58;98624.13;1086826;47;19970;-85
2023/08/01 15:54:28;;;;;;;;;;;;;;;24.45;37.30;98629.84;1086701;47;19943;-86
2023/08/01 15:55:32;;;;;;;;;;;;;;;24.38;37.07;98621.91;1087040;54;19949;-88
2023/08/01 15:56:35;;;;;;;;;;;;;;;24.53;37.20;98623.03;1086834;47;19950;-91
2023/08/01 15:57:36;;;;;;;;;;;;;;;24.72;37.04;98615.97;1086853;47;20002;-87
2023/08/01 15:58:40;;;;;;;;;;;;;;;24.59;37.20;98620.03;1087031;54;19942;-88
2023/08/01 15:59:40;;;;;;;;;;;;;;;24.67;37.56;98628.78;1089821;39;21197;-88
2023/08/01 16:00:44;;;;;;;;;;;;;;;24.43;38.29;98615.63;1086663;54;19942;-87
2023/08/01 16:01:46;;;;;;;;;;;;;;;24.46;38.38;98612.38;1086299;46;19939;-86
2023/08/01 16:02:50;;;;;;;;;;;;;;;24.43;38.31;98613.75;1086713;47;19949;-90
2023/08/01 16:03:50;;;;;;;;;;;;;;;24.27;38.67;98621.06;1086765;54;19968;-89
2023/08/01 16:04:54;;;;;;;;;;;;;;;24.37;38.54;98624.91;1086997;54;19947;-88
2023/08/01 16:05:55;;;;;;;;;;;;;;;24.41;38.81;98621.38;1086833;54;19943;-87
2023/08/01 16:07:00;;;;;;;;;;;;;;;24.25;38.92;98625.19;1086989;47;19943;-91
2023/08/01 16:08:01;;;;;;;;;;;;;;;24.07;39.31;98624.59;1086944;54;19968;-87
2023/08/01 16:09:04;;;;;;;;;;;;;;;24.12;39.17;98635.50;1086817;54;20280;-89
2023/08/01 16:10:05;;;;;;;;;;;;;;;24.13;39.44;98634.41;1086815;47;19938;-87
2023/08/01 16:11:11;;;;;;;;;;;;;;;24.13;39.17;98626.22;1086829;54;19968;-89
2023/08/01 16:12:12;;;;;;;;;;;;;;;24.09;39.27;98633.31;1087342;39;20708;-88
2023/08/01 16:13:13;;;;;;;;;;;;;;;24.01;39.27;98628.38;1086876;54;19943;-88
2023/08/01 16:14:16;;;;;;;;;;;;;;;23.93;39.42;98620.66;1088298;39;20928;-88
2023/08/01 16:15:17;;;;;;;;;;;;;;;24.04;39.29;98635.22;1086945;47;19954;-89
2023/08/01 16:16:20;;;;;;;;;;;;;;;23.84;39.65;98634.84;1087152;46;20032;-87
2023/08/01 16:17:21;;;;;;;;;;;;;;;23.81;40.02;98634.56;1087082;54;20016;-88
2023/08/01 16:18:24;;;;;;;;;;;;;;;23.75;39.44;98636.44;1086908;47;19939;-89
2023/08/01 16:19:25;;;;;;;;;;;;;;;23.82;39.26;98628.81;1086882;47;19939;-88
2023/08/01 16:20:29;;;;;;;;;;;;;;;23.68;39.52;98631.22;1086855;47;19976;-87
2023/08/01 16:21:29;;;;;;;;;;;;;;;23.78;39.39;98641.38;1086984;47;19943;-88
2023/08/01 16:22:33;;;;;;;;;;;;;;;23.78;39.25;98638.63;1087023;47;19938;-89
2023/08/01 16:23:34;;;;;;;;;;;;;;;23.53;39.86;98642.88;1087232;54;19942;-89
2023/08/01 16:24:37;;;;;;;;;;;;;;;23.59;39.87;98632.81;1090589;39;21238;-86
2023/08/01 16:25:38;;;;;;;;;;;;;;;23.46;40.58;98636.03;1087015;47;19934;-89
2023/08/01 16:26:44;;;;;;;;;;;;;;;23.43;40.65;98626.44;1087177;47;19947;-88
2023/08/01 16:27:45;;;;;;;;;;;;;;;23.28;40.60;98637.25;1087105;54;19943;-88
2023/08/01 16:28:49;;;;;;;;;;;;;;;23.26;40.54;98643.00;1086961;47;19946;-87
2023/08/01 16:29:50;;;;;;;;;;;;;;;23.32;40.49;98638.41;1086959;47;19967;-88
2023/08/01 16:30:54;;;;;;;;;;;;;;;23.28;40.89;98635.38;1086985;54;19942;-90
2023/08/01 16:31:54;;;;;;;;;;;;;;;23.33;40.80;98638.13;1086873;47;19942;-87
2023/08/01 16:32:58;;;;;;;;;;;;;;;23.30;41.38;98641.38;1086946;54;19968;-88
2023/08/01 16:33:58;;;;;;;;;;;;;;;23.38;40.90;98642.78;1086648;47;19942;-87
2023/08/01 16:35:02;;;;;;;;;;;;;;;23.45;41.11;98645.28;1086784;47;19950;-88
2023/08/01 16:36:03;;;;;;;;;;;;;;;23.30;41.17;98646.00;1086994;54;19969;-89
2023/08/01 16:37:07;;;;;;;;;;;;;;;23.15;41.44;98635.78;1086817;54;19968;-88
2023/08/01 16:38:07;;;;;;;;;;;;;;;23.18;41.16;98649.75;1086868;54;19967;-87
2023/08/01 16:39:11;;;;;;;;;;;;;;;23.01;41.83;98651.78;1086999;47;19964;-86
2023/08/01 16:40:11;;;;;;;;;;;;;;;22.96;41.54;98651.72;1086902;54;20323;-87
2023/08/01 16:41:20;;;;;;;;;;;;;;;23.01;41.42;98649.03;1088565;31;20688;-88
2023/08/01 16:42:26;;;;;;;;;;;;;;;23.04;41.77;98648.53;1087064;47;19939;-87
2023/08/01 16:43:29;;;;;;;;;;;;;;;23.11;41.37;98643.69;1086798;47;19949;-88
2023/08/01 16:44:30;;;;;;;;;;;;;;;23.09;41.60;98650.47;1088062;39;20815;-88
2023/08/01 16:45:33;;;;;;;;;;;;;;;23.04;42.31;98643.09;1086940;54;19950;-86
2023/08/01 16:46:34;;;;;;;;;;;;;;;23.09;42.18;98651.28;1087108;47;19973;-88
2023/08/01 16:47:37;;;;;;;;;;;;;;;23.13;42.20;98652.41;1086908;54;19942;-89
2023/08/01 16:48:38;;;;;;;;;;;;;;;23.21;42.07;98649.22;1088263;46;19967;-87
2023/08/01 16:49:39;;;;;;;;;;;;;;;23.08;42.04;98652.38;1086912;54;19943;-88
2023/08/01 16:50:42;;;;;;;;;;;;;;;23.14;42.36;98651.34;1086836;47;19943;-88
2023/08/01 16:51:43;;;;;;;;;;;;;;;23.32;42.25;98655.56;1086949;47;19963;-89
2023/08/01 16:52:47;;;;;;;;;;;;;;;23.28;42.43;98659.91;1087014;47;19963;-88
2023/08/01 16:53:47;;;;;;;;;;;;;;;23.21;42.19;98654.69;1087271;47;19963;-87
2023/08/01 16:54:51;;;;;;;;;;;;;;;23.33;42.00;98654.47;1086897;47;19938;-87
2023/08/01 16:55:55;;;;;;;;;;;;;;;23.33;42.11;98656.41;1087221;54;19950;-88
2023/08/01 16:56:58;;;;;;;;;;;;;;;23.23;42.11;98657.13;1087113;54;19990;-87
2023/08/01 16:58:02;;;;;;;;;;;;;;;23.15;42.17;98657.59;1087083;54;19943;-87
2023/08/01 16:59:05;;;;;;;;;;;;;;;23.25;41.89;98659.59;1089848;39;20967;-90
2023/08/01 17:00:07;;;;;;;;;;;;;;;23.08;41.97;98660.53;1087045;54;19966;-86
2023/08/01 17:01:11;;;;;;;;;;;;;;;23.25;41.82;98659.59;1087198;47;19998;-88
2023/08/01 17:02:14;;;;;;;;;;;;;;;23.12;42.08;98656.22;1086851;47;19968;-89
2023/08/01 17:03:15;;;;;;;;;;;;;;;23.00;41.96;98663.75;1087129;47;19949;-89
2023/08/01 17:04:21;;;;;;;;;;;;;;;23.10;41.71;98663.84;1087024;46;19970;-88
2023/08/01 17:05:21;;;;;;;;;;;;;;;23.08;41.62;98667.91;1089821;39;20615;-87
2023/08/01 17:06:25;;;;;;;;;;;;;;;23.00;42.19;98671.91;1087638;54;19943;-87
2023/08/01 17:07:26;;;;;;;;;;;;;;;22.94;42.30;98673.78;1087337;47;21015;-86
2023/08/01 17:08:29;;;;;;;;;;;;;;;22.89;41.92;98674.56;1087578;47;19942;-87
2023/08/01 17:09:30;;;;;;;;;;;;;;;22.90;42.01;98669.94;1087334;47;19942;-87
2023/08/01 17:10:33;;;;;;;;;;;;;;;22.88;42.15;98680.28;1087624;54;19946;-90
2023/08/01 17:11:34;;;;;;;;;;;;;;;22.83;42.15;98675.59;1087462;46;19950;-87
2023/08/01 17:12:37;;;;;;;;;;;;;;;22.85;42.27;98678.91;1087893;46;20906;-86
2023/08/01 17:13:40;;;;;;;;;;;;;;;22.89;41.83;98690.91;1087913;47;19927;-88
2023/08/01 17:14:44;;;;;;;;;;;;;;;22.87;42.05;98681.34;1087864;47;19947;-87
2023/08/01 17:15:44;;;;;;;;;;;;;;;22.98;42.00;98693.16;1088021;47;19942;-88
2023/08/01 17:16:45;;;;;;;;;;;;;;;22.93;41.88;98687.66;1087935;47;19943;-87
2023/08/01 20:23:38;;;;;;;;;;;;;;;19.32;62.26;98935.44;1087072;54;20369;-82
2023/08/01 20:24:39;;;;;;;;;;;;;;;19.38;61.81;98933.69;1087281;47;20315;-83
2023/08/01 20:25:43;;;;;;;;;;;;;;;19.34;62.20;98936.03;1087464;47;19967;-84
2023/08/01 20:26:44;;;;;;;;;;;;;;;19.32;62.13;98930.84;1087472;54;19942;-84
2023/08/01 20:27:47;;;;;;;;;;;;;;;19.36;61.83;98936.66;1087438;54;19949;-82
2023/08/01 20:28:48;;;;;;;;;;;;;;;19.36;61.88;98933.94;1087627;54;19974;-84
2023/08/01 20:29:52;;;;;;;;;;;;;;;19.31;62.43;98936.50;1087696;54;19967;-84
2023/08/01 20:30:53;;;;;;;;;;;;;;;19.27;62.26;98933.41;1087424;54;19942;-83
2023/08/01 20:31:56;;;;;;;;;;;;;;;19.26;62.55;98939.88;1087409;54;19943;-83
2023/08/01 20:32:57;;;;;;;;;;;;;;;19.27;62.33;98946.97;1087421;54;19926;-84
2023/08/01 20:34:00;;;;;;;;;;;;;;;19.25;62.33;98950.97;1087645;54;19943;-81
2023/08/01 20:35:01;;;;;;;;;;;;;;;19.25;62.44;98940.13;1087356;54;19973;-82
2023/08/01 20:36:05;;;;;;;;;;;;;;;19.30;62.11;98942.97;1087288;54;19943;-81
2023/08/01 20:37:06;;;;;;;;;;;;;;;19.31;62.32;98944.63;1087261;54;19943;-81
2023/08/01 20:38:09;;;;;;;;;;;;;;;19.29;62.15;98938.59;1087047;51;19951;-81
2023/08/01 20:39:15;;;;;;;;;;;;;;;19.34;62.11;98944.16;1086974;47;19970;-82
2023/08/01 20:40:20;;;;;;;;;;;;;;;19.32;62.27;98949.81;1086937;47;20039;-81
2023/08/01 20:41:21;;;;;;;;;;;;;;;19.32;62.12;98940.84;1087137;54;19958;-80
2023/08/01 20:42:24;;;;;;;;;;;;;;;19.35;62.00;98944.97;1087056;47;19949;-81
2023/08/01 20:43:25;;;;;;;;;;;;;;;19.41;61.92;98950.31;1087042;54;19943;-81
2023/08/01 20:44:28;;;;;;;;;;;;;;;19.46;61.49;98942.31;1086958;54;19974;-81
2023/08/01 20:45:29;;;;;;;;;;;;;;;19.50;61.63;98948.13;1087447;39;20578;-80
2023/08/01 20:46:33;;;;;;;;;;;;;;;19.51;61.53;98948.94;1086994;47;19998;-80
2023/08/01 20:47:34;;;;;;;;;;;;;;;19.53;61.35;98946.84;1087302;47;19942;-80
2023/08/01 20:48:37;;;;;;;;;;;;;;;19.54;61.35;98951.19;1087423;47;19943;-80
2023/08/01 20:49:38;;;;;;;;;;;;;;;19.55;61.49;98955.56;1087372;47;19950;-80
2023/08/01 20:50:42;;;;;;;;;;;;;;;19.51;61.20;98946.22;1087233;54;19939;-80
2023/08/01 20:51:42;;;;;;;;;;;;;;;19.56;61.35;98951.78;1087675;54;19942;-85
2023/08/01 20:52:46;;;;;;;;;;;;;;;19.56;61.06;98951.78;1087582;54;19942;-81
2023/08/01 20:53:46;;;;;;;;;;;;;;;19.55;61.29;98955.56;1087579;54;19943;-82
2023/08/01 20:54:52;;;;;;;;;;;;;;;19.52;61.13;98950.59;1087637;54;19942;-83